sensor_id;sensor_type;location;lat;lon;timestamp;P1;P2;P0
13030;PMS7003;6582;54.644;9.760;2023-07-28T00:00:01;73.2;61.3;
13030;PMS7003;6582;54.644;9.760;2023-07-28T00:05:06;74.3;62.3;
13030;PMS7003;6582;54.644;9.760;2023-07-28T00:15:01;74.6;62.6;
13030;PMS7003;6582;54.644;9.760;2023-07-28T00:20:06;71.0;59.5;
13030;PMS7003;6582;54.644;9.760;2023-07-28T00:25:02;70.1;58.5;
13030;PMS7003;6582;54.644;9.760;2023-07-28T00:30:01;69.2;57.5;
13030;PMS7003;6582;54.644;9.760;2023-07-28T00:35:01;68.4;56.7;
13030;PMS7003;6582;54.644;9.760;2023-07-28T00:40:01;67.5;55.6;
13030;PMS7003;6582;54.644;9.760;2023-07-28T00:45:01;66.6;54.9;
13030;PMS7003;6582;54.644;9.760;2023-07-28T00:50:02;66.4;54.5;
13030;PMS7003;6582;54.644;9.760;2023-07-28T00:55:01;66.2;54.3;
13030;PMS7003;6582;54.644;9.760;2023-07-28T01:00:01;66.2;54.4;
13030;PMS7003;6582;54.644;9.760;2023-07-28T01:05:03;66.0;54.4;
13030;PMS7003;6582;54.644;9.760;2023-07-28T01:10:02;66.4;54.8;
13030;PMS7003;6582;54.644;9.760;2023-07-28T01:15:02;66.4;54.8;
13030;PMS7003;6582;54.644;9.760;2023-07-28T01:20:07;65.7;54.4;
13030;PMS7003;6582;54.644;9.760;2023-07-28T01:45:02;68.0;57.0;
13030;PMS7003;6582;54.644;9.760;2023-07-28T01:50:02;70.5;59.1;
13030;PMS7003;6582;54.644;9.760;2023-07-28T01:55:02;73.0;62.9;
13030;PMS7003;6582;54.644;9.760;2023-07-28T02:00:02;74.3;64.6;
13030;PMS7003;6582;54.644;9.760;2023-07-28T02:05:02;74.8;65.3;
13030;PMS7003;6582;54.644;9.760;2023-07-28T02:10:02;76.6;67.9;
13030;PMS7003;6582;54.644;9.760;2023-07-28T02:15:02;76.5;68.6;
13030;PMS7003;6582;54.644;9.760;2023-07-28T02:20:02;75.8;67.6;
13030;PMS7003;6582;54.644;9.760;2023-07-28T02:25:02;74.7;66.0;
13030;PMS7003;6582;54.644;9.760;2023-07-28T02:30:02;74.5;66.1;
13030;PMS7003;6582;54.644;9.760;2023-07-28T02:35:02;78.1;67.8;
13030;PMS7003;6582;54.644;9.760;2023-07-28T02:40:02;79.2;69.5;
13030;PMS7003;6582;54.644;9.760;2023-07-28T02:45:02;80.0;70.9;
13030;PMS7003;6582;54.644;9.760;2023-07-28T02:50:02;81.2;72.8;
13030;PMS7003;6582;54.644;9.760;2023-07-28T03:00:02;77.4;70.5;
13030;PMS7003;6582;54.644;9.760;2023-07-28T03:05:02;77.0;69.4;
13030;PMS7003;6582;54.644;9.760;2023-07-28T03:10:02;76.8;68.9;
13030;PMS7003;6582;54.644;9.760;2023-07-28T03:15:02;75.0;66.4;
13030;PMS7003;6582;54.644;9.760;2023-07-28T03:20:03;75.8;67.9;
13030;PMS7003;6582;54.644;9.760;2023-07-28T03:25:07;75.2;66.6;
13030;PMS7003;6582;54.644;9.760;2023-07-28T03:30:02;74.2;64.9;
13030;PMS7003;6582;54.644;9.760;2023-07-28T03:35:02;72.3;62.2;
13030;PMS7003;6582;54.644;9.760;2023-07-28T03:40:01;72.5;62.3;
13030;PMS7003;6582;54.644;9.760;2023-07-28T03:45:02;71.0;59.5;
13030;PMS7003;6582;54.644;9.760;2023-07-28T03:50:01;71.2;59.9;
13030;PMS7003;6582;54.644;9.760;2023-07-28T03:55:07;71.4;60.0;
13030;PMS7003;6582;54.644;9.760;2023-07-28T04:00:11;73.8;63.7;
13030;PMS7003;6582;54.644;9.760;2023-07-28T04:05:07;75.4;66.6;
13030;PMS7003;6582;54.644;9.760;2023-07-28T04:10:03;76.7;68.9;
13030;PMS7003;6582;54.644;9.760;2023-07-28T04:15:02;77.6;70.6;
13030;PMS7003;6582;54.644;9.760;2023-07-28T04:20:02;79.2;73.3;
13030;PMS7003;6582;54.644;9.760;2023-07-28T04:25:02;78.8;72.6;
13030;PMS7003;6582;54.644;9.760;2023-07-28T04:30:06;76.6;69.1;
13030;PMS7003;6582;54.644;9.760;2023-07-28T04:35:02;76.7;69.2;
13030;PMS7003;6582;54.644;9.760;2023-07-28T04:40:02;76.4;68.5;
13030;PMS7003;6582;54.644;9.760;2023-07-28T04:45:02;76.3;68.3;
13030;PMS7003;6582;54.644;9.760;2023-07-28T04:50:01;76.0;67.1;
13030;PMS7003;6582;54.644;9.760;2023-07-28T04:55:02;78.1;70.3;
13030;PMS7003;6582;54.644;9.760;2023-07-28T05:00:01;77.4;69.0;
13030;PMS7003;6582;54.644;9.760;2023-07-28T05:10:02;77.8;69.7;
13030;PMS7003;6582;54.644;9.760;2023-07-28T05:15:02;81.8;72.6;
13030;PMS7003;6582;54.644;9.760;2023-07-28T05:20:02;81.6;72.6;
13030;PMS7003;6582;54.644;9.760;2023-07-28T05:25:02;81.5;72.6;
13030;PMS7003;6582;54.644;9.760;2023-07-28T05:30:01;80.7;71.7;
13030;PMS7003;6582;54.644;9.760;2023-07-28T05:35:01;78.8;69.0;
13030;PMS7003;6582;54.644;9.760;2023-07-28T05:40:02;73.2;64.2;
13030;PMS7003;6582;54.644;9.760;2023-07-28T05:45:02;71.4;61.6;
13030;PMS7003;6582;54.644;9.760;2023-07-28T05:50:06;70.0;59.5;
13030;PMS7003;6582;54.644;9.760;2023-07-28T05:55:07;68.6;57.4;
13030;PMS7003;6582;54.644;9.760;2023-07-28T06:00:01;69.1;57.3;
13030;PMS7003;6582;54.644;9.760;2023-07-28T06:05:01;69.2;57.6;
13030;PMS7003;6582;54.644;9.760;2023-07-28T06:10:02;68.7;56.7;
13030;PMS7003;6582;54.644;9.760;2023-07-28T06:15:02;68.1;56.3;
13030;PMS7003;6582;54.644;9.760;2023-07-28T06:20:02;68.0;55.9;
13030;PMS7003;6582;54.644;9.760;2023-07-28T06:25:03;66.5;54.8;
13030;PMS7003;6582;54.644;9.760;2023-07-28T06:30:02;65.5;53.6;
13030;PMS7003;6582;54.644;9.760;2023-07-28T06:35:01;65.1;53.4;
13030;PMS7003;6582;54.644;9.760;2023-07-28T06:40:02;64.8;53.2;
13030;PMS7003;6582;54.644;9.760;2023-07-28T06:45:02;64.1;52.7;
13030;PMS7003;6582;54.644;9.760;2023-07-28T06:50:01;64.0;52.3;
13030;PMS7003;6582;54.644;9.760;2023-07-28T06:55:02;64.6;52.8;
13030;PMS7003;6582;54.644;9.760;2023-07-28T07:00:02;64.9;53.3;
13030;PMS7003;6582;54.644;9.760;2023-07-28T07:05:03;65.1;53.5;
13030;PMS7003;6582;54.644;9.760;2023-07-28T07:10:01;68.0;57.4;
13030;PMS7003;6582;54.644;9.760;2023-07-28T07:15:02;69.0;59.5;
13030;PMS7003;6582;54.644;9.760;2023-07-28T07:20:02;69.8;60.9;
13030;PMS7003;6582;54.644;9.760;2023-07-28T07:25:06;71.7;63.4;
13030;PMS7003;6582;54.644;9.760;2023-07-28T07:30:01;73.0;65.3;
13030;PMS7003;6582;54.644;9.760;2023-07-28T07:35:02;71.5;63.3;
13030;PMS7003;6582;54.644;9.760;2023-07-28T07:40:02;72.0;64.3;
13030;PMS7003;6582;54.644;9.760;2023-07-28T07:45:03;71.8;64.0;
13030;PMS7003;6582;54.644;9.760;2023-07-28T07:50:01;70.3;62.2;
13030;PMS7003;6582;54.644;9.760;2023-07-28T07:55:02;74.6;65.6;
13030;PMS7003;6582;54.644;9.760;2023-07-28T08:00:01;74.8;65.8;
13030;PMS7003;6582;54.644;9.760;2023-07-28T08:05:01;73.6;63.7;
13030;PMS7003;6582;54.644;9.760;2023-07-28T08:10:01;73.8;64.0;
13030;PMS7003;6582;54.644;9.760;2023-07-28T08:15:01;74.5;64.9;
13030;PMS7003;6582;54.644;9.760;2023-07-28T08:20:01;70.9;63.0;
13030;PMS7003;6582;54.644;9.760;2023-07-28T08:25:01;71.8;65.0;
13030;PMS7003;6582;54.644;9.760;2023-07-28T08:30:02;73.2;67.5;
13030;PMS7003;6582;54.644;9.760;2023-07-28T08:35:02;73.5;68.0;
13030;PMS7003;6582;54.644;9.760;2023-07-28T08:40:01;74.8;70.7;
13030;PMS7003;6582;54.644;9.760;2023-07-28T08:45:02;75.4;72.0;
13030;PMS7003;6582;54.644;9.760;2023-07-28T08:50:01;74.8;71.2;
13030;PMS7003;6582;54.644;9.760;2023-07-28T08:55:01;74.2;70.3;
13030;PMS7003;6582;54.644;9.760;2023-07-28T09:00:09;74.4;70.6;
13030;PMS7003;6582;54.644;9.760;2023-07-28T09:05:02;75.6;72.0;
13030;PMS7003;6582;54.644;9.760;2023-07-28T09:10:02;77.0;73.7;
13030;PMS7003;6582;54.644;9.760;2023-07-28T09:15:02;79.6;77.3;
13030;PMS7003;6582;54.644;9.760;2023-07-28T09:20:01;82.5;81.3;
13030;PMS7003;6582;54.644;9.760;2023-07-28T09:25:09;83.8;83.8;
13030;PMS7003;6582;54.644;9.760;2023-07-28T09:35:08;83.2;83.2;
13030;PMS7003;6582;54.644;9.760;2023-07-28T09:40:02;81.8;81.6;
13030;PMS7003;6582;54.644;9.760;2023-07-28T09:45:01;80.4;80.3;
13030;PMS7003;6582;54.644;9.760;2023-07-28T09:50:02;78.2;77.6;
13030;PMS7003;6582;54.644;9.760;2023-07-28T09:55:07;77.4;76.3;
13030;PMS7003;6582;54.644;9.760;2023-07-28T10:00:02;74.4;71.2;
13030;PMS7003;6582;54.644;9.760;2023-07-28T10:05:03;72.7;68.0;
13030;PMS7003;6582;54.644;9.760;2023-07-28T10:10:03;71.4;65.6;
13030;PMS7003;6582;54.644;9.760;2023-07-28T10:15:02;71.2;65.1;
13030;PMS7003;6582;54.644;9.760;2023-07-28T10:20:03;71.0;64.7;
13030;PMS7003;6582;54.644;9.760;2023-07-28T10:25:02;72.4;67.3;
13030;PMS7003;6582;54.644;9.760;2023-07-28T10:30:02;73.4;69.1;
13030;PMS7003;6582;54.644;9.760;2023-07-28T10:55:02;76.4;73.4;
13030;PMS7003;6582;54.644;9.760;2023-07-28T11:00:01;76.4;73.9;
13030;PMS7003;6582;54.644;9.760;2023-07-28T11:05:05;79.1;77.4;
13030;PMS7003;6582;54.644;9.760;2023-07-28T11:10:01;79.2;77.8;
13030;PMS7003;6582;54.644;9.760;2023-07-28T11:15:01;78.5;77.0;
13030;PMS7003;6582;54.644;9.760;2023-07-28T11:20:01;81.7;78.8;
13030;PMS7003;6582;54.644;9.760;2023-07-28T11:25:01;82.0;79.4;
13030;PMS7003;6582;54.644;9.760;2023-07-28T11:30:01;80.4;77.5;
13030;PMS7003;6582;54.644;9.760;2023-07-28T11:35:09;80.2;77.2;
13030;PMS7003;6582;54.644;9.760;2023-07-28T11:40:07;80.7;78.2;
13030;PMS7003;6582;54.644;9.760;2023-07-28T11:45:02;77.6;76.5;
13030;PMS7003;6582;54.644;9.760;2023-07-28T11:50:01;77.3;76.0;
13030;PMS7003;6582;54.644;9.760;2023-07-28T11:55:02;77.4;75.9;
13030;PMS7003;6582;54.644;9.760;2023-07-28T12:00:07;76.8;75.0;
13030;PMS7003;6582;54.644;9.760;2023-07-28T12:05:11;76.2;73.9;
13030;PMS7003;6582;54.644;9.760;2023-07-28T12:10:05;75.8;73.2;
13030;PMS7003;6582;54.644;9.760;2023-07-28T12:15:17;75.4;72.7;
13030;PMS7003;6582;54.644;9.760;2023-07-28T12:20:03;75.1;72.1;
13030;PMS7003;6582;54.644;9.760;2023-07-28T12:25:01;74.9;71.8;
13030;PMS7003;6582;54.644;9.760;2023-07-28T12:30:05;74.2;70.5;
13030;PMS7003;6582;54.644;9.760;2023-07-28T12:35:15;74.9;71.8;
13030;PMS7003;6582;54.644;9.760;2023-07-28T12:40:06;74.7;71.3;
13030;PMS7003;6582;54.644;9.760;2023-07-28T12:45:04;74.7;71.3;
13030;PMS7003;6582;54.644;9.760;2023-07-28T12:50:03;74.6;71.1;
13030;PMS7003;6582;54.644;9.760;2023-07-28T12:55:04;74.9;71.6;
13030;PMS7003;6582;54.644;9.760;2023-07-28T13:00:04;73.6;69.2;
13030;PMS7003;6582;54.644;9.760;2023-07-28T13:05:01;72.6;67.6;
13030;PMS7003;6582;54.644;9.760;2023-07-28T13:10:01;71.1;65.3;
13030;PMS7003;6582;54.644;9.760;2023-07-28T13:15:01;72.6;65.4;
13030;PMS7003;6582;54.644;9.760;2023-07-28T13:20:05;71.5;63.6;
13030;PMS7003;6582;54.644;9.760;2023-07-28T13:25:01;71.4;63.6;
13030;PMS7003;6582;54.644;9.760;2023-07-28T13:30:03;70.4;61.7;
13030;PMS7003;6582;54.644;9.760;2023-07-28T13:35:01;70.1;61.0;
13030;PMS7003;6582;54.644;9.760;2023-07-28T13:40:01;66.9;57.9;
13030;PMS7003;6582;54.644;9.760;2023-07-28T13:45:01;66.2;56.7;
13030;PMS7003;6582;54.644;9.760;2023-07-28T13:50:01;65.8;56.0;
13030;PMS7003;6582;54.644;9.760;2023-07-28T13:55:04;66.8;57.7;
13030;PMS7003;6582;54.644;9.760;2023-07-28T14:00:02;67.4;58.6;
13030;PMS7003;6582;54.644;9.760;2023-07-28T14:05:02;68.5;60.4;
13030;PMS7003;6582;54.644;9.760;2023-07-28T14:10:01;68.9;60.8;
13030;PMS7003;6582;54.644;9.760;2023-07-28T14:15:02;69.0;60.8;
13030;PMS7003;6582;54.644;9.760;2023-07-28T14:20:01;69.4;61.4;
13030;PMS7003;6582;54.644;9.760;2023-07-28T14:25:01;68.8;60.6;
13030;PMS7003;6582;54.644;9.760;2023-07-28T14:30:01;68.0;59.3;
13030;PMS7003;6582;54.644;9.760;2023-07-28T14:40:01;67.6;58.8;
13030;PMS7003;6582;54.644;9.760;2023-07-28T14:45:06;66.9;57.9;
13030;PMS7003;6582;54.644;9.760;2023-07-28T14:50:01;68.2;60.1;
13030;PMS7003;6582;54.644;9.760;2023-07-28T14:55:01;68.6;60.6;
13030;PMS7003;6582;54.644;9.760;2023-07-28T15:00:02;68.4;60.2;
13030;PMS7003;6582;54.644;9.760;2023-07-28T15:05:01;68.2;59.9;
13030;PMS7003;6582;54.644;9.760;2023-07-28T15:10:02;69.3;61.6;
13030;PMS7003;6582;54.644;9.760;2023-07-28T15:15:02;68.6;60.3;
13030;PMS7003;6582;54.644;9.760;2023-07-28T15:20:01;68.4;60.0;
13030;PMS7003;6582;54.644;9.760;2023-07-28T15:25:02;69.7;62.2;
13030;PMS7003;6582;54.644;9.760;2023-07-28T15:30:01;70.1;62.8;
13030;PMS7003;6582;54.644;9.760;2023-07-28T15:35:06;69.2;61.3;
13030;PMS7003;6582;54.644;9.760;2023-07-28T15:40:07;69.4;61.8;
13030;PMS7003;6582;54.644;9.760;2023-07-28T15:45:02;69.8;62.6;
13030;PMS7003;6582;54.644;9.760;2023-07-28T15:50:02;70.0;62.9;
13030;PMS7003;6582;54.644;9.760;2023-07-28T15:55:01;73.1;65.8;
13030;PMS7003;6582;54.644;9.760;2023-07-28T16:00:02;73.5;66.1;
13030;PMS7003;6582;54.644;9.760;2023-07-28T16:05:01;73.2;65.4;
13030;PMS7003;6582;54.644;9.760;2023-07-28T16:10:02;72.9;64.7;
13030;PMS7003;6582;54.644;9.760;2023-07-28T16:15:02;72.4;63.6;
13030;PMS7003;6582;54.644;9.760;2023-07-28T16:20:02;69.4;60.8;
13030;PMS7003;6582;54.644;9.760;2023-07-28T16:25:06;68.5;59.5;
13030;PMS7003;6582;54.644;9.760;2023-07-28T16:30:05;68.0;58.8;
13030;PMS7003;6582;54.644;9.760;2023-07-28T16:35:02;67.4;58.2;
13030;PMS7003;6582;54.644;9.760;2023-07-28T16:40:01;67.8;58.8;
13030;PMS7003;6582;54.644;9.760;2023-07-28T16:45:07;67.7;58.6;
13030;PMS7003;6582;54.644;9.760;2023-07-28T16:50:01;68.4;59.8;
13030;PMS7003;6582;54.644;9.760;2023-07-28T16:55:06;70.4;63.1;
13030;PMS7003;6582;54.644;9.760;2023-07-28T17:00:02;72.6;66.7;
13030;PMS7003;6582;54.644;9.760;2023-07-28T17:05:01;73.7;68.8;
13030;PMS7003;6582;54.644;9.760;2023-07-28T17:10:01;75.0;71.4;
13030;PMS7003;6582;54.644;9.760;2023-07-28T17:20:09;75.5;72.4;
13030;PMS7003;6582;54.644;9.760;2023-07-28T17:25:01;75.1;71.8;
13030;PMS7003;6582;54.644;9.760;2023-07-28T17:30:01;74.2;70.2;
13030;PMS7003;6582;54.644;9.760;2023-07-28T17:35:01;72.7;67.6;
13030;PMS7003;6582;54.644;9.760;2023-07-28T17:40:06;70.5;64.2;
13030;PMS7003;6582;54.644;9.760;2023-07-28T17:45:01;68.4;60.6;
13030;PMS7003;6582;54.644;9.760;2023-07-28T17:55:01;66.5;57.4;
13030;PMS7003;6582;54.644;9.760;2023-07-28T18:00:01;64.7;54.5;
13030;PMS7003;6582;54.644;9.760;2023-07-28T18:05:01;63.1;52.2;
13030;PMS7003;6582;54.644;9.760;2023-07-28T18:10:06;62.7;51.6;
13030;PMS7003;6582;54.644;9.760;2023-07-28T18:20:03;63.4;52.4;
13030;PMS7003;6582;54.644;9.760;2023-07-28T18:25:06;63.1;52.1;
13030;PMS7003;6582;54.644;9.760;2023-07-28T18:30:03;62.8;51.8;
13030;PMS7003;6582;54.644;9.760;2023-07-28T18:35:06;65.8;54.3;
13030;PMS7003;6582;54.644;9.760;2023-07-28T18:40:06;65.4;54.0;
13030;PMS7003;6582;54.644;9.760;2023-07-28T18:45:04;64.8;53.3;
13030;PMS7003;6582;54.644;9.760;2023-07-28T18:50:08;64.6;53.1;
13030;PMS7003;6582;54.644;9.760;2023-07-28T18:55:03;64.4;52.9;
13030;PMS7003;6582;54.644;9.760;2023-07-28T19:00:07;61.1;50.4;
13030;PMS7003;6582;54.644;9.760;2023-07-28T19:05:02;61.7;50.9;
13030;PMS7003;6582;54.644;9.760;2023-07-28T19:10:03;61.9;51.2;
13030;PMS7003;6582;54.644;9.760;2023-07-28T19:15:06;62.3;51.6;
13030;PMS7003;6582;54.644;9.760;2023-07-28T19:20:03;68.5;56.9;
13030;PMS7003;6582;54.644;9.760;2023-07-28T19:25:02;69.1;57.3;
13030;PMS7003;6582;54.644;9.760;2023-07-28T19:30:03;68.5;56.8;
13030;PMS7003;6582;54.644;9.760;2023-07-28T19:40:06;68.0;56.2;
13030;PMS7003;6582;54.644;9.760;2023-07-28T19:45:02;67.0;55.4;
13030;PMS7003;6582;54.644;9.760;2023-07-28T19:50:32;60.4;50.0;
13030;PMS7003;6582;54.644;9.760;2023-07-28T19:55:02;59.8;49.4;
13030;PMS7003;6582;54.644;9.760;2023-07-28T20:00:07;59.8;49.4;
13030;PMS7003;6582;54.644;9.760;2023-07-28T20:05:06;60.3;49.8;
13030;PMS7003;6582;54.644;9.760;2023-07-28T20:10:02;61.4;50.6;
13030;PMS7003;6582;54.644;9.760;2023-07-28T20:15:04;63.0;52.0;
13030;PMS7003;6582;54.644;9.760;2023-07-28T20:20:02;64.0;52.8;
13030;PMS7003;6582;54.644;9.760;2023-07-28T20:25:02;64.2;53.0;
13030;PMS7003;6582;54.644;9.760;2023-07-28T20:30:06;64.2;53.0;
13030;PMS7003;6582;54.644;9.760;2023-07-28T20:35:02;65.2;54.2;
13030;PMS7003;6582;54.644;9.760;2023-07-28T20:40:02;65.7;54.5;
13030;PMS7003;6582;54.644;9.760;2023-07-28T20:45:01;66.1;54.9;
13030;PMS7003;6582;54.644;9.760;2023-07-28T20:50:01;67.5;56.4;
13030;PMS7003;6582;54.644;9.760;2023-07-28T20:55:02;69.3;58.3;
13030;PMS7003;6582;54.644;9.760;2023-07-28T21:00:01;69.6;59.2;
13030;PMS7003;6582;54.644;9.760;2023-07-28T21:10:01;69.8;59.6;
13030;PMS7003;6582;54.644;9.760;2023-07-28T21:15:02;71.3;61.2;
13030;PMS7003;6582;54.644;9.760;2023-07-28T21:20:01;71.1;61.2;
13030;PMS7003;6582;54.644;9.760;2023-07-28T21:25:01;70.7;60.7;
13030;PMS7003;6582;54.644;9.760;2023-07-28T21:30:01;70.5;59.8;
13030;PMS7003;6582;54.644;9.760;2023-07-28T21:35:03;70.0;59.2;
13030;PMS7003;6582;54.644;9.760;2023-07-28T21:40:01;68.8;57.8;
13030;PMS7003;6582;54.644;9.760;2023-07-28T21:45:01;68.2;56.8;
13030;PMS7003;6582;54.644;9.760;2023-07-28T21:50:07;68.6;57.2;
13030;PMS7003;6582;54.644;9.760;2023-07-28T21:55:01;68.4;57.1;
13030;PMS7003;6582;54.644;9.760;2023-07-28T22:05:01;68.7;57.2;
13030;PMS7003;6582;54.644;9.760;2023-07-28T22:10:02;68.8;57.3;
13030;PMS7003;6582;54.644;9.760;2023-07-28T22:15:02;69.4;57.7;
13030;PMS7003;6582;54.644;9.760;2023-07-28T22:20:01;68.9;56.8;
13030;PMS7003;6582;54.644;9.760;2023-07-28T22:30:01;68.3;56.3;
13030;PMS7003;6582;54.644;9.760;2023-07-28T22:35:06;68.2;56.2;
13030;PMS7003;6582;54.644;9.760;2023-07-28T22:45:06;69.5;58.0;
13030;PMS7003;6582;54.644;9.760;2023-07-28T22:50:01;69.8;58.5;
13030;PMS7003;6582;54.644;9.760;2023-07-28T22:55:17;70.4;59.0;
13030;PMS7003;6582;54.644;9.760;2023-07-28T23:00:07;70.2;58.6;
13030;PMS7003;6582;54.644;9.760;2023-07-28T23:10:02;69.3;57.2;
13030;PMS7003;6582;54.644;9.760;2023-07-28T23:15:01;67.6;55.6;
13030;PMS7003;6582;54.644;9.760;2023-07-28T23:25:01;66.8;54.4;
13030;PMS7003;6582;54.644;9.760;2023-07-28T23:30:02;66.8;54.4;
13030;PMS7003;6582;54.644;9.760;2023-07-28T23:35:07;67.2;54.8;
13030;PMS7003;6582;54.644;9.760;2023-07-28T23:40:06;67.7;55.4;
13030;PMS7003;6582;54.644;9.760;2023-07-28T23:45:01;67.4;55.2;
13030;PMS7003;6582;54.644;9.760;2023-07-28T23:55:13;68.8;56.6;
